Webcam Richtung Westen

Webcam27

Webcam Richtung Norden

Webcam36

Webcam Richtung Osten

Webcam09

Wetter(Würzburg):
260330Z AUTO 29003G05KT 0125 -DZ SCT001 BKN056 BKN069 11/10 Q1021
		
Tue 26.09.2017, 03:30 UTC

Sichtweite bis zu 125 m
schwacher Sprühregen
Wind aus 290° mit 03kt, in Böen bis zu 05kt
einige Wolken (3-4 Achtel) bei 100 Fuß
unterbrochene Wolkendecke (5-7 Achtel) bei 5600 Fuß
unterbrochene Wolkendecke (5-7 Achtel) bei 6900 Fuß
Temperatur: 11 °C
Taupunkt: 10 °C
QNH: 1021 hPa
                         Heute        Morgen
                         26.09        27.09
--------------------------------------------
Beginn der Dämmerung     04:40        04:42
Sonnenaufgang            05:12        05:14
Sonnenuntergang          17:11        17:09
Ende der Dämmerung       17:43        17:41

Alle Zeiten in UTC